Time;durP1;ratioP1;P1;durP2;ratioP2;P2;SDS_P1;SDS_P2;PMS_P1;PMS_P2;Temp;Humidity;BMP_temperature;BMP_pressure;BME280_temperature;BME280_humidity;BME280_pressure;Samples;Min_cycle;Max_cycle;Signal;HPM_P1;HPM_P2
2023/05/10 00:00:56;0.00;0.00;0.62;0.00;0.00;0.62;2.13;1.90;;;27.70;21.60;;;;;;2254734;61;20449;-63
2023/05/10 00:03:41;0.00;0.00;0.62;0.00;0.00;0.62;2.13;1.70;;;27.70;21.60;;;;;;2252580;61;20394;-63
2023/05/10 00:06:26;0.00;0.00;0.62;0.00;0.00;0.62;1.90;1.50;;;27.70;21.60;;;;;;2252751;61;20449;-61
2023/05/10 00:09:11;0.00;0.00;0.62;0.00;0.00;0.62;2.20;2.00;;;27.70;21.60;;;;;;2252216;61;20968;-63
2023/05/10 00:11:58;0.00;0.00;0.62;0.00;0.00;0.62;2.40;1.80;;;27.70;21.60;;;;;;2254533;61;20788;-62
2023/05/10 00:14:44;0.00;0.00;0.62;0.00;0.00;0.62;2.37;1.70;;;27.70;21.60;;;;;;2252844;61;20387;-64
2023/05/10 00:17:30;0.00;0.00;0.62;0.00;0.00;0.62;2.27;1.77;;;27.70;21.50;;;;;;2252455;61;20426;-63
2023/05/10 00:20:15;0.00;0.00;0.62;0.00;0.00;0.62;2.10;1.90;;;27.70;21.50;;;;;;2251644;61;20375;-62
2023/05/10 00:23:00;0.00;0.00;0.62;0.00;0.00;0.62;2.10;1.80;;;27.70;21.50;;;;;;2252755;61;20892;-65
2023/05/10 00:25:45;0.00;0.00;0.62;0.00;0.00;0.62;2.43;2.00;;;27.70;21.50;;;;;;2252731;61;20358;-63
2023/05/10 00:28:30;0.00;0.00;0.62;0.00;0.00;0.62;3.07;2.07;;;27.70;21.50;;;;;;2253720;61;20365;-64
2023/05/10 00:31:16;0.00;0.00;0.62;0.00;0.00;0.62;1.90;1.40;;;27.70;21.50;;;;;;2256282;61;20374;-64
2023/05/10 00:34:01;0.00;0.00;0.62;0.00;0.00;0.62;2.30;1.90;;;27.70;21.50;;;;;;2253264;61;20385;-62
2023/05/10 00:36:46;0.00;0.00;0.62;0.00;0.00;0.62;2.30;1.97;;;27.70;21.50;;;;;;2253859;61;20623;-65
2023/05/10 00:39:31;0.00;0.00;0.62;0.00;0.00;0.62;2.13;1.60;;;27.70;21.50;;;;;;2256095;61;20390;-63
2023/05/10 00:42:15;0.00;0.00;0.62;0.00;0.00;0.62;2.50;2.10;;;27.70;21.50;;;;;;2253214;61;20462;-63
2023/05/10 00:45:01;0.00;0.00;0.62;0.00;0.00;0.62;1.80;1.50;;;27.70;21.40;;;;;;2253358;61;20370;-64
2023/05/10 00:47:47;0.00;0.00;0.62;0.00;0.00;0.62;2.27;1.90;;;27.70;21.40;;;;;;2256405;61;20452;-63
2023/05/10 00:50:33;0.00;0.00;0.62;0.00;0.00;0.62;2.00;1.73;;;27.70;21.40;;;;;;2253184;61;20401;-63
2023/05/10 00:53:18;0.00;0.00;0.62;0.00;0.00;0.62;1.80;1.60;;;27.70;21.40;;;;;;2253984;61;20362;-63
2023/05/10 00:56:03;0.00;0.00;0.62;0.00;0.00;0.62;2.30;1.83;;;27.70;21.40;;;;;;2253374;61;20535;-62
2023/05/10 00:58:48;0.00;0.00;0.62;0.00;0.00;0.62;2.50;1.60;;;27.70;21.40;;;;;;2255958;61;20409;-63
2023/05/10 01:01:34;0.00;0.00;0.62;0.00;0.00;0.62;2.70;2.17;;;27.70;21.40;;;;;;2489058;53;20458;-64
2023/05/10 01:04:25;0.00;0.00;0.62;0.00;0.00;0.62;2.27;2.03;;;27.70;21.40;;;;;;2252996;61;20431;-63
2023/05/10 01:07:10;0.00;0.00;0.62;0.00;0.00;0.62;1.73;1.60;;;27.60;21.30;;;;;;2254049;61;20425;-65
2023/05/10 01:09:55;0.00;0.00;0.62;0.00;0.00;0.62;2.47;1.90;;;27.70;21.40;;;;;;2253625;61;20382;-64
2023/05/10 01:12:43;0.00;0.00;0.62;0.00;0.00;0.62;2.03;1.67;;;27.60;21.30;;;;;;2252966;61;20685;-62
2023/05/10 01:15:29;0.00;0.00;0.62;0.00;0.00;0.62;2.70;1.83;;;27.70;21.40;;;;;;2253680;61;20393;-61
2023/05/10 01:18:15;0.00;0.00;0.62;0.00;0.00;0.62;2.50;2.13;;;27.60;21.30;;;;;;2253714;61;20437;-64
2023/05/10 01:21:17;0.00;0.00;0.62;0.00;0.00;0.62;2.53;2.27;;;27.60;21.30;;;;;;2253201;61;20425;-63
2023/05/10 01:24:37;0.00;0.00;0.62;0.00;0.00;0.62;2.20;1.80;;;27.60;21.30;;;;;;2253515;61;20917;-62
2023/05/10 01:28:30;0.00;0.00;0.62;0.00;0.00;0.62;2.10;1.73;;;27.60;21.30;;;;;;2252701;61;20370;-61
2023/05/10 01:31:30;0.00;0.00;0.62;0.00;0.00;0.62;2.30;1.80;;;27.60;21.30;;;;;;2253631;61;20822;-63
2023/05/10 01:34:23;0.00;0.00;0.62;0.00;0.00;0.62;2.50;1.63;;;27.60;21.30;;;;;;2252759;61;20359;-61
2023/05/10 01:37:13;0.00;0.00;0.62;0.00;0.00;0.62;2.60;2.40;;;27.60;21.30;;;;;;2254264;61;20418;-61
2023/05/10 01:40:07;0.00;0.00;0.62;0.00;0.00;0.62;2.03;1.77;;;27.60;21.30;;;;;;2252823;61;20421;-61
2023/05/10 01:42:59;0.00;0.00;0.62;0.00;0.00;0.62;2.20;1.90;;;27.60;21.30;;;;;;2253285;61;20379;-61
2023/05/10 01:45:58;0.00;0.00;0.62;0.00;0.00;0.62;2.73;2.10;;;27.60;21.30;;;;;;2253153;61;20362;-64
2023/05/10 01:48:50;0.00;0.00;0.62;0.00;0.00;0.62;1.90;1.67;;;27.50;21.20;;;;;;2251861;61;20371;-64
2023/05/10 01:51:46;0.00;0.00;0.62;0.00;0.00;0.62;2.40;2.20;;;27.50;21.30;;;;;;2253076;61;20862;-65
2023/05/10 01:54:33;0.00;0.00;0.62;0.00;0.00;0.62;2.40;1.83;;;27.50;21.30;;;;;;2252616;61;20367;-64
2023/05/10 01:57:20;0.00;0.00;0.62;0.00;0.00;0.62;2.27;1.97;;;27.50;21.30;;;;;;2252256;61;20396;-63
2023/05/10 02:00:08;0.00;0.00;0.62;0.00;0.00;0.62;2.10;1.90;;;27.50;21.30;;;;;;2252109;61;20510;-64
2023/05/10 02:03:08;0.00;0.00;0.62;0.00;0.00;0.62;2.10;1.90;;;27.50;21.30;;;;;;2252301;61;20378;-64
2023/05/10 02:05:55;0.00;0.00;0.62;0.00;0.00;0.62;2.50;2.00;;;27.50;21.30;;;;;;2252677;61;20374;-65
2023/05/10 02:08:43;0.00;0.00;0.62;0.00;0.00;0.62;2.30;2.00;;;27.50;21.30;;;;;;2252744;61;20474;-63
2023/05/10 02:11:29;0.00;0.00;0.62;0.00;0.00;0.62;2.63;2.27;;;27.50;21.80;;;;;;2252337;61;20371;-63
2023/05/10 02:14:15;0.00;0.00;0.62;0.00;0.00;0.62;2.23;2.03;;;27.50;21.30;;;;;;2252836;61;20759;-63
2023/05/10 02:17:04;0.00;0.00;0.62;0.00;0.00;0.62;2.37;1.90;;;27.50;21.30;;;;;;2253306;61;20366;-61
2023/05/10 02:19:49;0.00;0.00;0.62;0.00;0.00;0.62;2.90;2.40;;;27.50;21.30;;;;;;2252647;61;20924;-62
2023/05/10 02:22:35;0.00;0.00;0.62;0.00;0.00;0.62;2.20;1.90;;;27.50;21.30;;;;;;2252974;61;20467;-64
2023/05/10 02:25:24;0.00;0.00;0.62;0.00;0.00;0.62;2.50;1.97;;;27.50;21.30;;;;;;2252028;61;20447;-63
2023/05/10 02:28:12;0.00;0.00;0.62;0.00;0.00;0.62;2.13;1.83;;;27.50;21.30;;;;;;2253189;61;20363;-65
2023/05/10 02:30:57;0.00;0.00;0.62;0.00;0.00;0.62;2.73;2.10;;;27.50;21.30;;;;;;2252684;61;20414;-63
2023/05/10 02:33:44;0.00;0.00;0.62;0.00;0.00;0.62;2.20;1.80;;;27.50;21.30;;;;;;2251821;61;20362;-63
2023/05/10 02:36:30;0.00;0.00;0.62;0.00;0.00;0.62;2.37;1.90;;;27.40;21.30;;;;;;2253021;61;20425;-64
2023/05/10 02:39:16;0.00;0.00;0.62;0.00;0.00;0.62;2.13;1.90;;;27.40;21.30;;;;;;2252434;61;20419;-63
2023/05/10 02:42:03;0.00;0.00;0.62;0.00;0.00;0.62;2.20;2.00;;;27.40;21.30;;;;;;2252403;61;20409;-63
2023/05/10 02:44:50;0.00;0.00;0.62;0.00;0.00;0.62;2.50;2.27;;;27.40;21.30;;;;;;2252912;61;20391;-64
2023/05/10 02:47:35;0.00;0.00;0.62;0.00;0.00;0.62;2.40;2.20;;;27.40;21.30;;;;;;2252154;61;20367;-64
2023/05/10 02:50:22;0.00;0.00;0.62;0.00;0.00;0.62;2.70;2.20;;;27.40;21.30;;;;;;2252520;61;20387;-61
2023/05/10 02:53:13;0.00;0.00;0.62;0.00;0.00;0.62;2.50;2.30;;;27.40;21.30;;;;;;2252712;61;20447;-67
2023/05/10 02:56:04;0.00;0.00;0.62;0.00;0.00;0.62;2.27;1.80;;;27.40;21.30;;;;;;2252317;61;20359;-64
2023/05/10 02:58:50;0.00;0.00;0.62;0.00;0.00;0.62;2.57;2.30;;;27.40;21.30;;;;;;2252164;61;20368;-65
2023/05/10 03:01:34;0.00;0.00;0.62;0.00;0.00;0.62;3.07;2.27;;;27.40;21.30;;;;;;2252208;61;20391;-63
2023/05/10 03:04:19;0.00;0.00;0.62;0.00;0.00;0.62;2.50;2.13;;;27.40;21.30;;;;;;2252736;61;20366;-65
2023/05/10 03:07:04;0.00;0.00;0.62;0.00;0.00;0.62;2.60;2.33;;;27.30;21.20;;;;;;2252530;61;20493;-65
2023/05/10 03:09:49;0.00;0.00;0.62;0.00;0.00;0.62;2.70;2.20;;;27.30;21.20;;;;;;2251659;61;20382;-65
2023/05/10 03:12:55;0.00;0.00;0.62;0.00;0.00;0.62;2.30;2.00;;;27.30;21.20;;;;;;2252620;61;20359;-64
2023/05/10 03:15:56;0.00;0.00;0.62;0.00;0.00;0.62;2.43;2.13;;;27.30;21.20;;;;;;2252233;61;20405;-64
2023/05/10 03:18:46;0.00;0.00;0.62;0.00;0.00;0.62;3.03;2.43;;;27.30;21.30;;;;;;2252522;61;20413;-63
2023/05/10 03:21:31;0.00;0.00;0.62;0.00;0.00;0.62;3.10;2.50;;;27.30;21.30;;;;;;2252315;61;20422;-63
2023/05/10 03:24:18;0.00;0.00;0.62;0.00;0.00;0.62;2.20;1.80;;;27.30;21.20;;;;;;2251684;61;20370;-62
2023/05/10 03:27:07;0.00;0.00;0.62;0.00;0.00;0.62;2.50;2.27;;;27.30;21.30;;;;;;2252397;61;20386;-62
2023/05/10 03:29:54;0.00;0.00;0.62;0.00;0.00;0.62;2.80;2.40;;;27.30;21.30;;;;;;2251947;61;20877;-63
2023/05/10 03:32:40;0.00;0.00;0.62;0.00;0.00;0.62;2.53;2.33;;;27.30;21.30;;;;;;2251687;61;20452;-63
2023/05/10 03:35:25;0.00;0.00;0.62;0.00;0.00;0.62;2.80;2.10;;;27.30;21.30;;;;;;2252735;61;20421;-63
2023/05/10 03:38:10;0.00;0.00;0.62;0.00;0.00;0.62;3.10;2.57;;;27.30;21.30;;;;;;2252226;61;20366;-63
2023/05/10 03:40:55;0.00;0.00;0.62;0.00;0.00;0.62;2.30;2.10;;;27.30;21.30;;;;;;2252078;61;20394;-63
2023/05/10 03:43:41;0.00;0.00;0.62;0.00;0.00;0.62;2.63;2.40;;;27.30;21.30;;;;;;2252388;61;20359;-63
2023/05/10 03:46:25;0.00;0.00;0.62;0.00;0.00;0.62;2.97;2.67;;;27.30;21.30;;;;;;2252056;61;20406;-64
2023/05/10 03:49:12;0.00;0.00;0.62;0.00;0.00;0.62;2.70;2.30;;;27.20;21.30;;;;;;2251221;61;20479;-62
2023/05/10 03:51:56;0.00;0.00;0.62;0.00;0.00;0.62;2.30;2.00;;;27.20;21.30;;;;;;2252119;61;20391;-62
2023/05/10 03:54:41;0.00;0.00;0.62;0.00;0.00;0.62;2.30;2.03;;;27.20;21.30;;;;;;2250725;61;20367;-59
2023/05/10 03:57:26;0.00;0.00;0.62;0.00;0.00;0.62;2.90;2.60;;;27.20;21.30;;;;;;2251562;61;20370;-62
2023/05/10 04:00:12;0.00;0.00;0.62;0.00;0.00;0.62;2.13;1.90;;;27.20;21.30;;;;;;2251066;61;20939;-62
2023/05/10 04:03:00;0.00;0.00;0.62;0.00;0.00;0.62;3.10;2.40;;;27.20;21.30;;;;;;2251510;61;20390;-62
2023/05/10 04:05:46;0.00;0.00;0.62;0.00;0.00;0.62;2.23;2.03;;;27.20;21.30;;;;;;2251423;61;20446;-62
2023/05/10 04:08:31;0.00;0.00;0.62;0.00;0.00;0.62;2.30;2.07;;;27.20;21.30;;;;;;2251373;61;20484;-63
2023/05/10 04:11:16;0.00;0.00;0.62;0.00;0.00;0.62;2.73;2.47;;;27.20;21.30;;;;;;2251202;61;20848;-61
2023/05/10 04:14:01;0.00;0.00;0.62;0.00;0.00;0.62;3.00;2.63;;;27.20;21.30;;;;;;2251993;61;20370;-62
2023/05/10 04:16:46;0.00;0.00;0.62;0.00;0.00;0.62;3.30;2.33;;;27.20;21.30;;;;;;2251117;61;20395;-61
2023/05/10 04:19:31;0.00;0.00;0.62;0.00;0.00;0.62;2.60;2.40;;;27.20;21.30;;;;;;2251603;61;20386;-62
2023/05/10 04:22:17;0.00;0.00;0.62;0.00;0.00;0.62;3.17;2.87;;;27.20;21.30;;;;;;2251710;61;20413;-63
2023/05/10 04:25:02;0.00;0.00;0.62;0.00;0.00;0.62;2.50;2.30;;;27.20;21.30;;;;;;2251478;61;20773;-62
2023/05/10 04:27:47;0.00;0.00;0.62;0.00;0.00;0.62;2.87;2.60;;;27.20;21.30;;;;;;2252002;61;20366;-62
2023/05/10 04:30:31;0.00;0.00;0.62;0.00;0.00;0.62;2.90;2.60;;;27.20;21.40;;;;;;2250971;61;20938;-62
2023/05/10 04:33:16;0.00;0.00;0.62;0.00;0.00;0.62;2.20;2.00;;;27.20;21.30;;;;;;2252127;61;20417;-60
2023/05/10 04:36:01;0.00;0.00;0.62;0.00;0.00;0.62;3.30;2.10;;;27.20;21.40;;;;;;2251923;61;20378;-61
2023/05/10 04:38:47;0.00;0.00;0.62;0.00;0.00;0.62;2.60;2.40;;;27.20;21.30;;;;;;2251257;61;20366;-60
2023/05/10 04:41:32;0.00;0.00;0.62;0.00;0.00;0.62;2.97;2.40;;;27.20;21.40;;;;;;2251921;61;20448;-63
2023/05/10 04:44:16;0.00;0.00;0.62;0.00;0.00;0.62;2.23;1.93;;;27.20;21.40;;;;;;2251761;61;20401;-61
2023/05/10 04:47:02;0.00;0.00;0.62;0.00;0.00;0.62;2.73;2.10;;;27.20;21.40;;;;;;2251417;61;20883;-62
2023/05/10 04:49:46;0.00;0.00;0.62;0.00;0.00;0.62;2.67;2.43;;;27.20;21.40;;;;;;2251460;61;20378;-62
2023/05/10 04:52:31;0.00;0.00;0.62;0.00;0.00;0.62;2.60;2.40;;;27.10;21.30;;;;;;2251232;61;20476;-66
2023/05/10 04:55:17;0.00;0.00;0.62;0.00;0.00;0.62;2.70;2.50;;;27.10;21.30;;;;;;2251586;61;20366;-63
2023/05/10 04:58:02;0.00;0.00;0.62;0.00;0.00;0.62;3.30;3.00;;;27.10;21.30;;;;;;2251341;61;20451;-61
2023/05/10 05:00:47;0.00;0.00;0.62;0.00;0.00;0.62;2.60;2.40;;;27.10;21.30;;;;;;2250778;61;20668;-60
2023/05/10 05:03:32;0.00;0.00;0.62;0.00;0.00;0.62;3.67;3.37;;;27.10;21.30;;;;;;2251775;61;20366;-63
2023/05/10 05:06:17;0.00;0.00;0.62;0.00;0.00;0.62;2.60;2.33;;;27.10;21.30;;;;;;2252032;61;20841;-62
2023/05/10 05:09:05;0.00;0.00;0.62;0.00;0.00;0.62;2.90;2.60;;;27.10;21.30;;;;;;2271587;40;20371;31
2023/05/10 05:11:51;0.00;0.00;0.62;0.00;0.00;0.62;3.73;2.73;;;27.10;21.30;;;;;;2245548;61;20384;-60
2023/05/10 05:14:35;0.00;0.00;0.62;0.00;0.00;0.62;3.70;3.40;;;27.10;21.30;;;;;;2244708;61;20368;-64
2023/05/10 05:17:20;0.00;0.00;0.62;0.00;0.00;0.62;4.10;3.57;;;27.10;21.40;;;;;;2244485;61;20360;-63
2023/05/10 05:20:07;0.00;0.00;0.62;0.00;0.00;0.62;3.37;3.07;;;27.10;21.40;;;;;;2255689;40;20402;-62
2023/05/10 05:22:51;0.00;0.00;0.62;0.00;0.00;0.62;3.67;2.90;;;27.10;21.40;;;;;;2259561;61;20404;-62
2023/05/10 05:25:36;0.00;0.00;0.62;0.00;0.00;0.62;3.60;3.30;;;27.10;21.90;;;;;;2260600;61;20415;-60
2023/05/10 05:28:23;0.00;0.00;0.62;0.00;0.00;0.62;4.00;3.60;;;27.10;21.40;;;;;;2260564;61;20372;-65
2023/05/10 05:31:08;0.00;0.00;0.62;0.00;0.00;0.62;3.13;2.83;;;27.10;21.40;;;;;;2259743;61;20377;-62
2023/05/10 05:33:52;0.00;0.00;0.62;0.00;0.00;0.62;3.43;3.10;;;27.10;21.40;;;;;;2260279;61;20483;-60
2023/05/10 05:36:40;0.00;0.00;0.62;0.00;0.00;0.62;3.40;2.90;;;27.10;21.40;;;;;;2260713;61;20369;-62
2023/05/10 05:39:24;0.00;0.00;0.62;0.00;0.00;0.62;4.00;3.57;;;27.10;21.40;;;;;;2259844;61;20380;-61
2023/05/10 05:42:10;0.00;0.00;0.62;0.00;0.00;0.62;4.17;3.77;;;27.10;21.40;;;;;;2260516;61;20388;-62
2023/05/10 05:44:56;0.00;0.00;0.62;0.00;0.00;0.62;3.73;3.43;;;27.10;21.40;;;;;;2259880;61;20396;-61
2023/05/10 05:47:41;0.00;0.00;0.62;0.00;0.00;0.62;4.20;3.80;;;27.10;21.50;;;;;;2260395;61;20435;-61
2023/05/10 05:50:25;0.00;0.00;0.62;0.00;0.00;0.62;3.70;3.33;;;27.10;21.50;;;;;;2260241;61;20435;-62
2023/05/10 05:53:10;0.00;0.00;0.62;0.00;0.00;0.62;4.47;4.00;;;27.10;21.50;;;;;;2259707;61;20395;-63
2023/05/10 05:55:57;0.00;0.00;0.62;0.00;0.00;0.62;4.17;3.60;;;27.00;21.40;;;;;;2260283;61;20360;-61
2023/05/10 05:58:42;0.00;0.00;0.62;0.00;0.00;0.62;4.50;4.10;;;27.00;21.40;;;;;;2260417;61;20368;-61
2023/05/10 06:01:28;0.00;0.00;0.62;0.00;0.00;0.62;4.43;4.03;;;27.00;21.40;;;;;;2259752;61;20451;-60
2023/05/10 06:04:12;0.00;0.00;0.62;0.00;0.00;0.62;4.67;4.27;;;27.00;21.40;;;;;;2260458;61;20898;-62
2023/05/10 06:06:57;0.00;0.00;0.62;0.00;0.00;0.62;4.67;4.17;;;27.00;21.40;;;;;;2259702;61;20408;-61
2023/05/10 06:09:41;0.00;0.00;0.62;0.00;0.00;0.62;5.00;4.43;;;27.00;21.50;;;;;;2259941;61;20937;-68
2023/05/10 06:12:26;0.00;0.00;0.62;0.00;0.00;0.62;4.70;4.20;;;27.00;21.50;;;;;;2260422;61;20985;-62
2023/05/10 06:15:11;0.00;0.00;0.62;0.00;0.00;0.62;5.10;4.60;;;27.00;21.50;;;;;;2259628;61;20361;-61
2023/05/10 06:17:57;0.00;0.00;0.62;0.00;0.00;0.62;4.53;4.13;;;27.00;21.50;;;;;;2260577;61;20412;-61
2023/05/10 06:20:42;0.00;0.00;0.62;0.00;0.00;0.62;4.57;4.13;;;27.00;21.50;;;;;;2260081;61;20435;-59
2023/05/10 06:23:27;0.00;0.00;0.62;0.00;0.00;0.62;4.87;4.47;;;27.00;21.50;;;;;;2259474;61;20372;-62
2023/05/10 06:26:13;0.00;0.00;0.62;0.00;0.00;0.62;4.57;4.13;;;27.00;21.50;;;;;;2260418;61;20500;-61
2023/05/10 06:28:58;0.00;0.00;0.62;0.00;0.00;0.62;4.53;4.13;;;27.00;21.50;;;;;;2259257;61;20373;-59
2023/05/10 06:31:42;0.00;0.00;0.62;0.00;0.00;0.62;5.27;4.40;;;27.00;21.60;;;;;;2260665;61;20368;-61
2023/05/10 06:34:28;0.00;0.00;0.62;0.00;0.00;0.62;4.30;3.90;;;27.00;21.50;;;;;;2260206;61;20365;-59
2023/05/10 06:37:13;0.00;0.00;0.62;0.00;0.00;0.62;4.83;4.00;;;27.00;22.10;;;;;;2259667;61;20788;-63
2023/05/10 06:39:58;0.00;0.00;0.62;0.00;0.00;0.62;4.73;4.30;;;27.00;21.60;;;;;;2260104;61;20424;-67
2023/05/10 06:42:43;0.00;0.00;0.62;0.00;0.00;0.62;5.10;4.40;;;27.00;21.60;;;;;;2260026;61;20481;-61
2023/05/10 06:45:27;0.00;0.00;0.62;0.00;0.00;0.62;4.90;4.07;;;27.00;21.60;;;;;;2259471;61;20356;-59
2023/05/10 06:48:12;0.00;0.00;0.62;0.00;0.00;0.62;5.27;4.77;;;27.00;21.60;;;;;;2260328;61;20500;-60
2023/05/10 06:50:58;0.00;0.00;0.62;0.00;0.00;0.62;5.47;4.47;;;27.00;21.70;;;;;;2259198;61;20836;-63
2023/05/10 06:53:42;0.00;0.00;0.62;0.00;0.00;0.62;4.37;3.97;;;27.00;21.70;;;;;;2260299;61;20457;-61
2023/05/10 06:56:27;0.00;0.00;0.62;0.00;0.00;0.62;5.20;4.70;;;27.00;21.70;;;;;;2260362;61;20364;-59
2023/05/10 06:59:13;0.00;0.00;0.62;0.00;0.00;0.62;4.90;4.30;;;27.00;21.70;;;;;;2258855;61;20802;-62
2023/05/10 07:01:58;0.00;0.00;0.62;0.00;0.00;0.62;4.07;3.67;;;27.00;21.70;;;;;;2260264;61;20905;-60
2023/05/10 07:04:42;0.00;0.00;0.62;0.00;0.00;0.62;4.80;4.30;;;27.00;21.70;;;;;;2260367;61;20360;-62
2023/05/10 07:07:28;0.00;0.00;0.62;0.00;0.00;0.62;4.73;4.23;;;27.00;21.70;;;;;;2259573;61;20680;-59
2023/05/10 07:10:13;0.00;0.00;0.62;0.00;0.00;0.62;4.37;3.97;;;27.00;21.70;;;;;;2260163;61;20388;-59
2023/05/10 07:12:58;0.00;0.00;0.62;0.00;0.00;0.62;4.40;4.00;;;27.00;21.80;;;;;;2260345;61;20844;-62
2023/05/10 07:15:43;0.00;0.00;0.62;0.00;0.00;0.62;5.23;4.47;;;27.00;21.80;;;;;;2260286;61;20360;-62
2023/05/10 07:18:27;0.00;0.00;0.62;0.00;0.00;0.62;5.00;4.60;;;27.00;21.80;;;;;;2260088;61;20441;-63
2023/05/10 07:21:11;0.00;0.00;0.62;0.00;0.00;0.62;5.40;3.87;;;27.00;21.80;;;;;;2259027;61;20435;-60
2023/05/10 07:23:58;0.00;0.00;0.62;0.00;0.00;0.62;5.67;4.93;;;27.00;21.80;;;;;;2260145;61;20836;-62
2023/05/10 07:26:42;0.00;0.00;0.62;0.00;0.00;0.62;5.33;4.83;;;27.00;21.80;;;;;;2260152;61;20415;-61
2023/05/10 07:29:28;0.00;0.00;0.62;0.00;0.00;0.62;4.70;4.30;;;27.00;21.80;;;;;;2259269;61;20469;-62
2023/05/10 07:32:13;0.00;0.00;0.62;0.00;0.00;0.62;4.70;4.30;;;27.00;21.80;;;;;;2260352;61;20765;-61
2023/05/10 07:34:57;0.00;0.00;0.62;0.00;0.00;0.62;5.73;4.60;;;27.00;21.80;;;;;;2259806;61;20369;-62
2023/05/10 07:37:42;0.00;0.00;0.62;0.00;0.00;0.62;5.37;4.70;;;27.00;21.90;;;;;;2259800;61;20377;-59
2023/05/10 07:40:29;0.00;0.00;0.62;0.00;0.00;0.62;5.40;4.70;;;27.00;21.90;;;;;;2259816;61;20789;-62
2023/05/10 07:43:13;0.00;0.00;0.62;0.00;0.00;0.62;5.40;4.87;;;27.00;21.90;;;;;;2259252;61;20431;-61
2023/05/10 07:45:59;0.00;0.00;0.62;0.00;0.00;0.62;5.10;4.60;;;27.00;21.90;;;;;;2259946;61;20399;-60
2023/05/10 07:48:44;0.00;0.00;0.62;0.00;0.00;0.62;6.23;5.63;;;27.00;21.90;;;;;;2260073;61;20503;-59
2023/05/10 07:51:29;0.00;0.00;0.62;0.00;0.00;0.62;4.37;3.97;;;27.00;21.90;;;;;;2259309;61;20415;-60
2023/05/10 07:54:14;0.00;0.00;0.62;0.00;0.00;0.62;5.53;5.03;;;27.00;21.90;;;;;;2260144;61;20765;-61
2023/05/10 07:57:00;0.00;0.00;0.62;0.00;0.00;0.62;5.03;4.63;;;27.00;21.90;;;;;;2260099;61;20437;-61
2023/05/10 07:59:45;0.00;0.00;0.62;0.00;0.00;0.62;7.03;4.40;;;27.00;21.90;;;;;;2259126;61;20393;-60
2023/05/10 08:02:30;0.00;0.00;0.62;0.00;0.00;0.62;6.10;5.50;;;27.00;21.90;;;;;;2260097;61;20400;-58
2023/05/10 08:05:15;0.00;0.00;0.62;0.00;0.00;0.62;5.60;4.60;;;27.00;22.00;;;;;;2259360;61;21270;-62
2023/05/10 08:08:00;0.00;0.00;0.62;0.00;0.00;0.62;5.20;4.70;;;27.00;22.00;;;;;;2259921;61;20411;-61
2023/05/10 08:10:44;0.00;0.00;0.62;0.00;0.00;0.62;6.50;5.70;;;27.00;22.00;;;;;;2259617;61;20389;-59
2023/05/10 08:13:31;0.00;0.00;0.62;0.00;0.00;0.62;5.60;5.07;;;27.00;22.00;;;;;;2259363;61;20360;-61
2023/05/10 08:16:16;0.00;0.00;0.62;0.00;0.00;0.62;5.53;4.97;;;27.00;22.00;;;;;;2260168;61;20369;-62
2023/05/10 08:19:01;0.00;0.00;0.62;0.00;0.00;0.62;5.33;4.90;;;27.00;22.00;;;;;;2259589;61;20413;-59
2023/05/10 08:21:46;0.00;0.00;0.62;0.00;0.00;0.62;5.23;4.73;;;26.90;21.90;;;;;;2258847;61;20388;-61
2023/05/10 08:24:32;0.00;0.00;0.62;0.00;0.00;0.62;5.30;4.80;;;26.90;22.00;;;;;;2259861;61;20356;-61
2023/05/10 08:27:16;0.00;0.00;0.62;0.00;0.00;0.62;5.13;4.63;;;27.00;22.00;;;;;;2259565;61;20887;-58
2023/05/10 08:30:03;0.00;0.00;0.62;0.00;0.00;0.62;5.60;5.00;;;27.00;22.00;;;;;;2259632;61;20427;-62
2023/05/10 08:32:48;0.00;0.00;0.62;0.00;0.00;0.62;6.30;5.10;;;26.90;22.00;;;;;;2259890;61;20369;-59
2023/05/10 08:35:34;0.00;0.00;0.62;0.00;0.00;0.62;5.10;4.60;;;26.90;22.00;;;;;;2259372;61;20442;-61
2023/05/10 08:38:19;0.00;0.00;0.62;0.00;0.00;0.62;5.40;4.83;;;27.00;22.10;;;;;;2259795;61;20416;-62
2023/05/10 08:41:05;0.00;0.00;0.62;0.00;0.00;0.62;5.50;4.43;;;26.90;22.00;;;;;;2259642;61;20377;-60
2023/05/10 08:43:51;0.00;0.00;0.62;0.00;0.00;0.62;5.20;4.33;;;26.90;22.10;;;;;;2259421;61;20364;-62
2023/05/10 08:46:42;0.00;0.00;0.62;0.00;0.00;0.62;5.27;4.77;;;26.90;22.10;;;;;;2260222;61;20722;-62
2023/05/10 08:49:31;0.00;0.00;0.62;0.00;0.00;0.62;5.70;4.70;;;26.90;22.10;;;;;;2259824;61;20411;-62
2023/05/10 08:52:17;0.00;0.00;0.62;0.00;0.00;0.62;6.27;5.37;;;26.90;22.10;;;;;;2261002;61;20403;-59
2023/05/10 08:55:01;0.00;0.00;0.62;0.00;0.00;0.62;4.97;4.50;;;26.90;22.10;;;;;;2260589;61;20372;-62
2023/05/10 08:57:47;0.00;0.00;0.62;0.00;0.00;0.62;5.73;5.13;;;26.90;22.10;;;;;;2259857;61;20655;-60
2023/05/10 09:00:32;0.00;0.00;0.62;0.00;0.00;0.62;5.10;4.60;;;26.90;22.10;;;;;;2260246;61;20465;-62
2023/05/10 09:03:18;0.00;0.00;0.62;0.00;0.00;0.62;5.60;4.90;;;26.90;22.20;;;;;;2260416;61;20956;-59
2023/05/10 09:06:03;0.00;0.00;0.62;0.00;0.00;0.62;4.73;4.33;;;26.90;22.20;;;;;;2260034;61;20424;-60
2023/05/10 09:08:48;0.00;0.00;0.62;0.00;0.00;0.62;5.30;4.53;;;26.90;22.20;;;;;;2260328;61;20431;-62
2023/05/10 09:11:33;0.00;0.00;0.62;0.00;0.00;0.62;4.87;4.37;;;26.90;22.20;;;;;;2260386;61;20749;-64
2023/05/10 09:14:19;0.00;0.00;0.62;0.00;0.00;0.62;5.17;4.63;;;26.90;22.20;;;;;;2260264;61;20412;-62
2023/05/10 09:17:04;0.00;0.00;0.62;0.00;0.00;0.62;5.30;4.80;;;26.90;22.20;;;;;;2260785;61;20355;-62
2023/05/10 09:19:56;0.00;0.00;0.62;0.00;0.00;0.62;4.80;4.30;;;26.90;22.20;;;;;;2259439;61;20469;-62
2023/05/10 09:22:41;0.00;0.00;0.62;0.00;0.00;0.62;5.10;4.33;;;26.90;22.20;;;;;;2260276;61;21005;-62
2023/05/10 09:25:26;0.00;0.00;0.62;0.00;0.00;0.62;5.03;4.40;;;26.90;22.20;;;;;;2260412;61;20417;-61
2023/05/10 09:28:11;0.00;0.00;0.62;0.00;0.00;0.62;5.20;4.70;;;26.90;22.30;;;;;;2260157;61;20400;-62
2023/05/10 09:30:56;0.00;0.00;0.62;0.00;0.00;0.62;5.93;4.83;;;26.90;22.30;;;;;;2260028;61;20432;-62
2023/05/10 09:33:45;0.00;0.00;0.62;0.00;0.00;0.62;5.20;4.70;;;26.90;22.30;;;;;;2260419;61;20364;-62
2023/05/10 09:36:31;0.00;0.00;0.62;0.00;0.00;0.62;5.00;4.27;;;26.90;22.30;;;;;;2260655;61;20667;-60
2023/05/10 09:39:15;0.00;0.00;0.62;0.00;0.00;0.62;4.53;4.13;;;26.90;22.30;;;;;;2260175;61;20434;-62
2023/05/10 09:42:04;0.00;0.00;0.62;0.00;0.00;0.62;4.90;4.40;;;26.90;22.30;;;;;;2259833;61;20484;-62
2023/05/10 09:44:48;0.00;0.00;0.62;0.00;0.00;0.62;5.17;4.33;;;26.90;22.30;;;;;;2260491;61;20365;-62
2023/05/10 09:47:34;0.00;0.00;0.62;0.00;0.00;0.62;5.57;4.03;;;26.90;22.30;;;;;;2260533;61;20780;-58
2023/05/10 09:50:20;0.00;0.00;0.62;0.00;0.00;0.62;4.30;3.83;;;26.90;22.30;;;;;;2259310;61;20791;-61
2023/05/10 09:53:06;0.00;0.00;0.62;0.00;0.00;0.62;5.67;4.30;;;26.90;22.30;;;;;;2260356;61;20407;-62
2023/05/10 09:55:51;0.00;0.00;0.62;0.00;0.00;0.62;4.50;3.83;;;26.90;22.90;;;;;;2260539;61;20369;-60
2023/05/10 09:58:40;0.00;0.00;0.62;0.00;0.00;0.62;4.93;4.20;;;26.90;22.40;;;;;;2259925;61;20397;-61
2023/05/10 10:01:26;0.00;0.00;0.62;0.00;0.00;0.62;4.40;3.73;;;26.90;22.40;;;;;;2260563;61;20736;-62
2023/05/10 10:04:11;0.00;0.00;0.62;0.00;0.00;0.62;4.50;4.10;;;26.90;22.40;;;;;;2259869;61;20893;-59
2023/05/10 10:07:01;0.00;0.00;0.62;0.00;0.00;0.62;4.73;4.17;;;26.90;22.40;;;;;;2260521;61;20419;-64
2023/05/10 10:09:47;0.00;0.00;0.62;0.00;0.00;0.62;4.87;4.20;;;26.90;22.40;;;;;;2260150;61;20384;-61
2023/05/10 10:12:32;0.00;0.00;0.62;0.00;0.00;0.62;4.90;3.83;;;26.90;22.40;;;;;;2259934;61;20407;-60
2023/05/10 10:15:17;0.00;0.00;0.62;0.00;0.00;0.62;4.80;3.80;;;26.90;22.90;;;;;;2260309;61;20364;-61
2023/05/10 10:18:04;0.00;0.00;0.62;0.00;0.00;0.62;4.70;4.10;;;26.90;22.40;;;;;;2260531;61;20901;-62
2023/05/10 10:20:50;0.00;0.00;0.62;0.00;0.00;0.62;4.87;3.80;;;26.90;22.40;;;;;;2259738;61;20427;-60
2023/05/10 10:23:35;0.00;0.00;0.62;0.00;0.00;0.62;3.93;3.00;;;26.90;22.40;;;;;;2260411;61;20882;-58
2023/05/10 10:26:21;0.00;0.00;0.62;0.00;0.00;0.62;3.87;3.30;;;26.90;22.40;;;;;;2259260;61;20369;-60
2023/05/10 10:29:21;0.00;0.00;0.62;0.00;0.00;0.62;4.10;3.67;;;26.90;22.50;;;;;;2260170;61;20357;-59
2023/05/10 10:32:19;0.00;0.00;0.62;0.00;0.00;0.62;3.70;3.07;;;26.90;22.50;;;;;;2260426;61;20364;-63
2023/05/10 10:35:06;0.00;0.00;0.62;0.00;0.00;0.62;4.00;3.60;;;26.90;22.50;;;;;;2259519;61;20500;-63
2023/05/10 10:37:51;0.00;0.00;0.62;0.00;0.00;0.62;3.63;3.30;;;26.90;22.50;;;;;;2260428;61;20407;-62
2023/05/10 10:40:36;0.00;0.00;0.62;0.00;0.00;0.62;3.60;3.30;;;26.90;22.50;;;;;;2259440;61;20400;-61
2023/05/10 10:43:27;0.00;0.00;0.62;0.00;0.00;0.62;4.80;4.20;;;26.90;22.50;;;;;;2260149;61;20440;-62
2023/05/10 10:46:14;0.00;0.00;0.62;0.00;0.00;0.62;4.27;3.50;;;26.90;22.50;;;;;;2260433;61;20396;-62
2023/05/10 10:49:10;0.00;0.00;0.62;0.00;0.00;0.62;4.50;3.80;;;26.90;22.50;;;;;;2259141;61;20839;-65
2023/05/10 10:52:20;0.00;0.00;0.62;0.00;0.00;0.62;3.67;3.33;;;26.90;22.50;;;;;;2260387;61;20499;-61
2023/05/10 10:55:08;0.00;0.00;0.62;0.00;0.00;0.62;4.30;3.90;;;26.90;22.50;;;;;;2260156;61;20388;-61
2023/05/10 10:58:00;0.00;0.00;0.62;0.00;0.00;0.62;4.10;3.60;;;26.90;22.50;;;;;;2260324;61;20899;-60